N5172C -KLAX
Flight info
| Callsign | N5172C |
|---|---|
| Flight time | N/A |
| Altitude | VFR |
| Route | |
| Aircraft | C172/L-DOV/C |
Departure
| Time | N/A |
|---|---|
| Airport | - |
Arrival
| Time | 2026-04-20 03:14 |
|---|---|
| Airport | Los Angeles International Airport (KLAX) |
| Time | Latitude | Longitude | Altitude | Speed | Heading |
|---|---|---|---|---|---|
| 2026-04-20 02:41 | 34.19933 | -119.20633 | 46 ft | 0 kts | 184° |
| 2026-04-20 02:41 | 34.19927 | -119.20626 | 46 ft | 4 kts | 92° |
| 2026-04-20 02:41 | 34.19963 | -119.20549 | 46 ft | 16 kts | 61° |
| 2026-04-20 02:41 | 34.19979 | -119.20402 | 46 ft | 20 kts | 91° |
| 2026-04-20 02:42 | 34.19976 | -119.20231 | 46 ft | 21 kts | 91° |
| 2026-04-20 02:42 | 34.19975 | -119.20046 | 45 ft | 22 kts | 90° |
| 2026-04-20 02:42 | 34.19974 | -119.19879 | 45 ft | 18 kts | 91° |
| 2026-04-20 02:42 | 34.19979 | -119.19777 | 45 ft | 5 kts | 65° |
| 2026-04-20 02:43 | 34.19987 | -119.19762 | 45 ft | 0 kts | 53° |
| 2026-04-20 02:43 | 34.19987 | -119.19761 | 45 ft | 1 kts | 52° |
| 2026-04-20 02:44 | 34.20022 | -119.19755 | 45 ft | 7 kts | 358° |
| 2026-04-20 02:44 | 34.20073 | -119.19791 | 45 ft | 14 kts | 283° |
| 2026-04-20 02:44 | 34.20077 | -119.20199 | 48 ft | 86 kts | 270° |
| 2026-04-20 02:44 | 34.20073 | -119.21065 | 241 ft | 116 kts | 270° |
| 2026-04-20 02:45 | 34.20055 | -119.22090 | 553 ft | 127 kts | 262° |
| 2026-04-20 02:45 | 34.19485 | -119.22921 | 715 ft | 144 kts | 201° |
| 2026-04-20 02:45 | 34.18482 | -119.22701 | 896 ft | 159 kts | 150° |
| 2026-04-20 02:45 | 34.17697 | -119.21781 | 1183 ft | 156 kts | 134° |
| 2026-04-20 02:46 | 34.17017 | -119.20830 | 1652 ft | 142 kts | 130° |
| 2026-04-20 02:46 | 34.16430 | -119.19935 | 2144 ft | 136 kts | 128° |
| 2026-04-20 02:46 | 34.15845 | -119.18982 | 2410 ft | 143 kts | 126° |
| 2026-04-20 02:46 | 34.15285 | -119.17986 | 2699 ft | 147 kts | 124° |
| 2026-04-20 02:47 | 34.14693 | -119.16940 | 2879 ft | 153 kts | 125° |
| 2026-04-20 02:47 | 34.14084 | -119.15885 | 3042 ft | 158 kts | 125° |
| 2026-04-20 02:47 | 34.13433 | -119.14754 | 3056 ft | 168 kts | 124° |
| 2026-04-20 02:47 | 34.12769 | -119.13601 | 3225 ft | 164 kts | 124° |
| 2026-04-20 02:48 | 34.12142 | -119.12502 | 3476 ft | 158 kts | 126° |
| 2026-04-20 02:48 | 34.11459 | -119.11401 | 3370 ft | 172 kts | 128° |
| 2026-04-20 02:48 | 34.10690 | -119.10239 | 3163 ft | 185 kts | 128° |
| 2026-04-20 02:48 | 34.09900 | -119.09010 | 3137 ft | 183 kts | 127° |
| 2026-04-20 02:49 | 34.09159 | -119.07801 | 3239 ft | 176 kts | 126° |
| 2026-04-20 02:49 | 34.08445 | -119.06623 | 3331 ft | 172 kts | 125° |
| 2026-04-20 02:49 | 34.08008 | -119.05823 | 3364 ft | 173 kts | 122° |
| 2026-04-20 02:49 | 34.07281 | -119.04154 | 3505 ft | 167 kts | 111° |
| 2026-04-20 02:50 | 34.06858 | -119.02844 | 3524 ft | 169 kts | 112° |
| 2026-04-20 02:50 | 34.06436 | -119.01510 | 3519 ft | 171 kts | 112° |
| 2026-04-20 02:50 | 34.06037 | -119.00142 | 3518 ft | 174 kts | 109° |
| 2026-04-20 02:50 | 34.05796 | -118.99221 | 3514 ft | 173 kts | 108° |
| 2026-04-20 02:51 | 34.05518 | -118.97803 | 3516 ft | 175 kts | 102° |
| 2026-04-20 02:51 | 34.05277 | -118.96367 | 3518 ft | 176 kts | 103° |
| 2026-04-20 02:51 | 34.05041 | -118.94909 | 3512 ft | 177 kts | 102° |
| 2026-04-20 02:51 | 34.04811 | -118.93453 | 3515 ft | 177 kts | 103° |
| 2026-04-20 02:52 | 34.04584 | -118.91993 | 3520 ft | 177 kts | 102° |
| 2026-04-20 02:52 | 34.04365 | -118.90552 | 3519 ft | 177 kts | 102° |
| 2026-04-20 02:52 | 34.04137 | -118.89095 | 3508 ft | 177 kts | 102° |
| 2026-04-20 02:52 | 34.03925 | -118.87634 | 3507 ft | 177 kts | 101° |
| 2026-04-20 02:53 | 34.03724 | -118.86176 | 3509 ft | 176 kts | 101° |
| 2026-04-20 02:53 | 34.03526 | -118.84724 | 3507 ft | 175 kts | 101° |
| 2026-04-20 02:53 | 34.03323 | -118.83279 | 3507 ft | 174 kts | 101° |
| 2026-04-20 02:53 | 34.03122 | -118.81833 | 3508 ft | 175 kts | 101° |
| 2026-04-20 02:54 | 34.02917 | -118.80386 | 3510 ft | 174 kts | 102° |
| 2026-04-20 02:54 | 34.02713 | -118.78948 | 3514 ft | 174 kts | 101° |
| 2026-04-20 02:54 | 34.02505 | -118.77509 | 3509 ft | 175 kts | 102° |
| 2026-04-20 02:54 | 34.02295 | -118.76085 | 3509 ft | 174 kts | 102° |
| 2026-04-20 02:55 | 34.02091 | -118.74643 | 3507 ft | 174 kts | 101° |
| 2026-04-20 02:55 | 34.01890 | -118.73208 | 3506 ft | 173 kts | 101° |
| 2026-04-20 02:55 | 34.01685 | -118.71777 | 3508 ft | 174 kts | 102° |
| 2026-04-20 02:55 | 34.01480 | -118.70333 | 3507 ft | 175 kts | 101° |
| 2026-04-20 02:56 | 34.01271 | -118.68884 | 3510 ft | 175 kts | 101° |
| 2026-04-20 02:56 | 34.01066 | -118.67449 | 3511 ft | 176 kts | 101° |
| 2026-04-20 02:56 | 34.00852 | -118.65994 | 3509 ft | 177 kts | 101° |
| 2026-04-20 02:56 | 34.00639 | -118.64534 | 3523 ft | 177 kts | 101° |
| 2026-04-20 02:57 | 34.00423 | -118.63072 | 3527 ft | 178 kts | 101° |
| 2026-04-20 02:57 | 34.00201 | -118.61601 | 3526 ft | 178 kts | 101° |
| 2026-04-20 02:57 | 33.99981 | -118.60129 | 3527 ft | 178 kts | 101° |
| 2026-04-20 02:57 | 33.99760 | -118.58663 | 3529 ft | 178 kts | 101° |
| 2026-04-20 02:58 | 33.99543 | -118.57207 | 3530 ft | 173 kts | 102° |
| 2026-04-20 02:58 | 33.99335 | -118.55809 | 3526 ft | 166 kts | 101° |
| 2026-04-20 02:58 | 33.99138 | -118.54455 | 3522 ft | 162 kts | 101° |
| 2026-04-20 02:58 | 33.98945 | -118.53123 | 3521 ft | 160 kts | 101° |
| 2026-04-20 02:59 | 33.98751 | -118.51808 | 3521 ft | 159 kts | 101° |
| 2026-04-20 02:59 | 33.98559 | -118.50527 | 3520 ft | 155 kts | 101° |
| 2026-04-20 02:59 | 33.98507 | -118.49249 | 3521 ft | 153 kts | 80° |
| 2026-04-20 02:59 | 33.98840 | -118.48037 | 3520 ft | 154 kts | 72° |
| 2026-04-20 03:00 | 33.99223 | -118.46775 | 3522 ft | 165 kts | 72° |
| 2026-04-20 03:00 | 33.99620 | -118.45447 | 3529 ft | 171 kts | 72° |
| 2026-04-20 03:00 | 34.00029 | -118.44078 | 3536 ft | 175 kts | 72° |
| 2026-04-20 03:00 | 34.00441 | -118.42688 | 3540 ft | 177 kts | 72° |
| 2026-04-20 03:01 | 34.00854 | -118.41294 | 3537 ft | 179 kts | 72° |
| 2026-04-20 03:01 | 34.01271 | -118.39876 | 3537 ft | 180 kts | 72° |
| 2026-04-20 03:01 | 34.01690 | -118.38450 | 3536 ft | 180 kts | 72° |
| 2026-04-20 03:01 | 34.02112 | -118.37024 | 3538 ft | 180 kts | 72° |
| 2026-04-20 03:02 | 34.02528 | -118.35594 | 3536 ft | 181 kts | 72° |
| 2026-04-20 03:02 | 34.02932 | -118.34154 | 3536 ft | 182 kts | 73° |
| 2026-04-20 03:02 | 34.03339 | -118.32713 | 3535 ft | 182 kts | 72° |
| 2026-04-20 03:02 | 34.03743 | -118.31270 | 3535 ft | 182 kts | 72° |
| 2026-04-20 03:03 | 34.04148 | -118.29821 | 3536 ft | 182 kts | 72° |
| 2026-04-20 03:03 | 34.04559 | -118.28379 | 3535 ft | 182 kts | 72° |
| 2026-04-20 03:03 | 34.04970 | -118.26937 | 3534 ft | 182 kts | 73° |
| 2026-04-20 03:03 | 34.05239 | -118.25469 | 3533 ft | 181 kts | 81° |
| 2026-04-20 03:04 | 34.05454 | -118.23968 | 3533 ft | 181 kts | 82° |
| 2026-04-20 03:04 | 34.05671 | -118.22466 | 3533 ft | 182 kts | 81° |
| 2026-04-20 03:04 | 34.05885 | -118.20965 | 3532 ft | 182 kts | 81° |
| 2026-04-20 03:04 | 34.06095 | -118.19459 | 3532 ft | 182 kts | 81° |
| 2026-04-20 03:05 | 34.06306 | -118.17956 | 3528 ft | 181 kts | 82° |
| 2026-04-20 03:05 | 34.06521 | -118.16476 | 3528 ft | 181 kts | 81° |
| 2026-04-20 03:05 | 34.06737 | -118.14981 | 3526 ft | 181 kts | 82° |
| 2026-04-20 03:05 | 34.06952 | -118.13484 | 3527 ft | 181 kts | 81° |
| 2026-04-20 03:06 | 34.07169 | -118.11986 | 3528 ft | 181 kts | 82° |
| 2026-04-20 03:06 | 34.07283 | -118.10487 | 3524 ft | 180 kts | 100° |
| 2026-04-20 03:06 | 34.06663 | -118.09231 | 3513 ft | 177 kts | 142° |
| 2026-04-20 03:06 | 34.05524 | -118.08694 | 3517 ft | 176 kts | 166° |
| 2026-04-20 03:07 | 34.04323 | -118.08376 | 3521 ft | 176 kts | 167° |
| 2026-04-20 03:07 | 34.03132 | -118.08072 | 3520 ft | 174 kts | 167° |
| 2026-04-20 03:07 | 34.01961 | -118.07778 | 3522 ft | 174 kts | 168° |
| 2026-04-20 03:07 | 34.00772 | -118.07484 | 3523 ft | 174 kts | 168° |
| 2026-04-20 03:08 | 33.99570 | -118.07235 | 3521 ft | 176 kts | 179° |
| 2026-04-20 03:08 | 33.98442 | -118.07764 | 3513 ft | 180 kts | 218° |
| 2026-04-20 03:08 | 33.97568 | -118.08854 | 3515 ft | 181 kts | 224° |
| 2026-04-20 03:08 | 33.96796 | -118.10057 | 3513 ft | 182 kts | 240° |
| 2026-04-20 03:09 | 33.96454 | -118.11520 | 3576 ft | 182 kts | 260° |
| 2026-04-20 03:09 | 33.96332 | -118.13054 | 3551 ft | 185 kts | 263° |
| 2026-04-20 03:09 | 33.96232 | -118.14594 | 3537 ft | 187 kts | 263° |
| 2026-04-20 03:09 | 33.96107 | -118.16155 | 3498 ft | 187 kts | 261° |
| 2026-04-20 03:10 | 33.95936 | -118.17712 | 3451 ft | 188 kts | 260° |
| 2026-04-20 03:10 | 33.95744 | -118.19273 | 3397 ft | 190 kts | 260° |
| 2026-04-20 03:10 | 33.95559 | -118.20850 | 3336 ft | 191 kts | 259° |
| 2026-04-20 03:10 | 33.95356 | -118.22444 | 3219 ft | 194 kts | 259° |
| 2026-04-20 03:11 | 33.95146 | -118.24065 | 3016 ft | 198 kts | 261° |
| 2026-04-20 03:11 | 33.94992 | -118.25725 | 2721 ft | 202 kts | 262° |
| 2026-04-20 03:11 | 33.94832 | -118.27390 | 2369 ft | 199 kts | 262° |
| 2026-04-20 03:11 | 33.94673 | -118.28987 | 2157 ft | 189 kts | 263° |
| 2026-04-20 03:12 | 33.94511 | -118.30506 | 1846 ft | 171 kts | 262° |
| 2026-04-20 03:12 | 33.94381 | -118.31832 | 1484 ft | 148 kts | 262° |
| 2026-04-20 03:12 | 33.94275 | -118.33003 | 1146 ft | 134 kts | 263° |
| 2026-04-20 03:12 | 33.94168 | -118.34092 | 953 ft | 130 kts | 262° |
| 2026-04-20 03:13 | 33.94054 | -118.35151 | 757 ft | 124 kts | 262° |
| 2026-04-20 03:13 | 33.93953 | -118.36185 | 528 ft | 122 kts | 263° |
| 2026-04-20 03:13 | 33.93856 | -118.37081 | 379 ft | 99 kts | 263° |
| 2026-04-20 03:13 | 33.93786 | -118.37836 | 235 ft | 84 kts | 262° |
| 2026-04-20 03:14 | 33.93716 | -118.38493 | 135 ft | 74 kts | 264° |
| 2026-04-20 03:14 | 33.93662 | -118.39017 | 120 ft | 50 kts | 262° |
| 2026-04-20 03:14 | 33.93630 | -118.39314 | 120 ft | 28 kts | 262° |
| 2026-04-20 03:14 | 33.93571 | -118.39377 | 120 ft | 9 kts | 168° |
| 2026-04-20 03:15 | 33.93517 | -118.39372 | 120 ft | 5 kts | 187° |
| 2026-04-20 03:15 | 33.93470 | -118.39389 | 118 ft | 10 kts | 181° |
| 2026-04-20 03:15 | 33.93427 | -118.39400 | 119 ft | 4 kts | 254° |